Time;durP1;ratioP1;P1;durP2;ratioP2;P2;SDS_P1;SDS_P2;PMS_P1;PMS_P2;Temp;Humidity;BMP_temperature;BMP_pressure;BME280_temperature;BME280_humidity;BME280_pressure;Samples;Min_cycle;Max_cycle;Signal;HPM_P1;HPM_P2
2021/01/18 00:00:24;;;;;;;4.70;3.93;;;6.60;73.10;;;;;;6245337;23;20412;-77
2021/01/18 00:02:50;;;;;;;4.20;3.80;;;6.60;73.20;;;;;;6245187;23;20456;-77
2021/01/18 00:05:17;;;;;;;3.50;3.20;;;6.60;73.10;;;;;;6243236;23;20948;-75
2021/01/18 00:07:46;;;;;;;6.80;4.50;;;6.60;72.80;;;;;;6245516;23;20733;-76
2021/01/18 00:10:17;;;;;;;5.50;3.60;;;6.70;72.80;;;;;;6244856;23;20735;-77
2021/01/18 00:12:45;;;;;;;4.80;3.73;;;6.70;72.80;;;;;;6244722;23;20416;-77
2021/01/18 00:15:13;;;;;;;4.50;3.50;;;6.70;73.50;;;;;;6245348;23;20408;-77
2021/01/18 00:17:39;;;;;;;6.17;3.47;;;6.70;72.80;;;;;;6245248;23;20779;-76
2021/01/18 00:20:07;;;;;;;4.17;3.77;;;6.70;72.70;;;;;;6244770;23;20415;-75
2021/01/18 00:22:37;;;;;;;4.50;3.97;;;6.70;72.70;;;;;;6245021;23;20529;-76
2021/01/18 00:25:09;;;;;;;4.40;4.00;;;6.70;72.70;;;;;;6245184;23;20914;-77
2021/01/18 00:27:37;;;;;;;6.20;4.63;;;6.70;72.60;;;;;;6245262;23;20423;-78
2021/01/18 00:30:11;;;;;;;7.83;3.63;;;6.70;72.40;;;;;;6245498;23;20474;-78
2021/01/18 00:32:39;;;;;;;6.10;4.60;;;6.70;72.50;;;;;;6243090;23;20729;-77
2021/01/18 00:35:07;;;;;;;4.77;4.20;;;6.70;72.50;;;;;;6244801;23;20410;-78
2021/01/18 00:37:41;;;;;;;5.40;3.97;;;6.70;72.30;;;;;;6244948;23;20978;-75
2021/01/18 00:40:09;;;;;;;5.00;4.10;;;6.70;72.20;;;;;;6245564;23;20408;-76
2021/01/18 00:42:36;;;;;;;5.20;4.03;;;6.70;72.40;;;;;;6244851;23;21011;-76
2021/01/18 00:45:04;;;;;;;4.00;3.37;;;6.60;72.50;;;;;;6244810;23;20426;-77
2021/01/18 00:47:31;;;;;;;3.90;3.57;;;6.70;72.40;;;;;;6244979;23;20755;-79
2021/01/18 00:49:58;;;;;;;4.80;3.90;;;6.60;72.50;;;;;;6245006;23;20410;-78
2021/01/18 00:52:25;;;;;;;4.40;3.77;;;6.60;72.40;;;;;;6244804;23;20421;-78
2021/01/18 00:54:51;;;;;;;5.27;4.77;;;6.60;72.60;;;;;;6245428;23;20401;-78
2021/01/18 00:57:18;;;;;;;4.67;3.87;;;6.60;72.60;;;;;;6244989;23;20420;-79
2021/01/18 00:59:45;;;;;;;5.90;3.97;;;6.50;72.50;;;;;;6243225;23;20408;-77
2021/01/18 01:02:12;;;;;;;5.50;4.20;;;6.60;72.80;;;;;;6245370;23;20448;-76
2021/01/18 01:04:38;;;;;;;4.53;4.13;;;6.50;72.70;;;;;;6244819;23;20992;-77
2021/01/18 01:07:05;;;;;;;4.73;3.70;;;6.50;72.60;;;;;;6244837;23;20423;-79
2021/01/18 01:09:31;;;;;;;4.70;3.77;;;6.50;72.80;;;;;;6245365;23;20727;-79
2021/01/18 01:11:58;;;;;;;5.70;4.40;;;6.40;72.80;;;;;;6245046;23;20415;-76
2021/01/18 01:14:25;;;;;;;4.00;3.03;;;6.40;73.00;;;;;;6244889;23;20405;-77
2021/01/18 01:16:52;;;;;;;5.67;3.80;;;6.40;73.00;;;;;;6245048;23;20408;-78
2021/01/18 01:19:19;;;;;;;3.93;3.63;;;6.40;73.20;;;;;;6244726;23;20900;-78
2021/01/18 01:21:49;;;;;;;4.77;4.20;;;6.30;73.10;;;;;;6244701;23;20415;-78
2021/01/18 01:24:18;;;;;;;4.60;4.20;;;6.40;73.10;;;;;;6244204;23;20454;-79
2021/01/18 01:26:45;;;;;;;3.30;2.80;;;6.40;73.20;;;;;;6243959;23;20413;-77
2021/01/18 01:29:12;;;;;;;7.00;4.10;;;6.40;73.30;;;;;;6245340;23;20750;-78
2021/01/18 01:31:39;;;;;;;9.43;4.33;;;6.30;73.10;;;;;;6247014;23;20404;-78
2021/01/18 01:34:06;;;;;;;5.90;4.17;;;6.30;73.10;;;;;;6246354;23;20465;-79
2021/01/18 01:36:33;;;;;;;4.97;3.80;;;6.30;73.20;;;;;;6247059;23;20475;-79
2021/01/18 01:38:59;;;;;;;4.00;3.57;;;6.30;73.30;;;;;;6247056;23;20419;-78
2021/01/18 01:41:30;;;;;;;3.80;3.50;;;6.40;73.40;;;;;;6246576;23;20434;-78
2021/01/18 01:43:57;;;;;;;4.27;3.63;;;6.40;73.20;;;;;;6246456;23;20786;-78
2021/01/18 01:46:23;;;;;;;3.73;3.43;;;6.40;73.10;;;;;;6246534;23;20415;-77
2021/01/18 01:48:50;;;;;;;4.93;3.43;;;6.30;73.00;;;;;;6246463;23;20432;-78
2021/01/18 01:51:23;;;;;;;2.63;2.43;;;6.30;73.10;;;;;;6244607;23;20477;-78
2021/01/18 01:53:50;;;;;;;4.10;3.57;;;6.30;73.20;;;;;;6246724;23;20423;-78
2021/01/18 01:56:17;;;;;;;3.40;3.10;;;6.40;73.30;;;;;;6246293;23;20462;-76
2021/01/18 01:58:44;;;;;;;2.40;2.20;;;6.40;73.00;;;;;;6246867;23;20410;-79
2021/01/18 02:01:11;;;;;;;3.40;2.50;;;6.50;73.00;;;;;;6246347;23;20413;-78
2021/01/18 02:03:41;;;;;;;4.27;3.87;;;6.50;72.90;;;;;;6246408;23;20454;-78
2021/01/18 02:06:09;;;;;;;3.23;2.97;;;6.50;73.20;;;;;;6246135;23;20929;-78
2021/01/18 02:08:37;;;;;;;5.63;3.10;;;6.50;73.30;;;;;;6246552;23;20408;-79
2021/01/18 02:11:05;;;;;;;6.47;3.47;;;6.50;73.40;;;;;;6246334;23;20416;-78
2021/01/18 02:13:44;;;;;;;4.00;2.97;;;6.50;73.50;;;;;;6246234;23;20408;-78
2021/01/18 02:16:22;;;;;;;3.50;3.20;;;6.60;73.30;;;;;;6246169;23;20416;-78
2021/01/18 02:19:10;;;;;;;3.13;2.87;;;6.60;73.30;;;;;;6244256;23;20418;-77
2021/01/18 02:22:16;;;;;;;4.60;3.00;;;6.60;73.00;;;;;;6246377;23;20499;-78
2021/01/18 02:25:10;;;;;;;3.10;2.80;;;6.70;73.00;;;;;;6246049;23;20485;-80
2021/01/18 02:27:59;;;;;;;3.10;2.77;;;6.70;73.00;;;;;;6246472;23;20415;-80
2021/01/18 02:30:58;;;;;;;3.37;2.80;;;6.70;73.10;;;;;;6246343;23;20410;-77
2021/01/18 02:33:50;;;;;;;3.50;3.20;;;6.60;72.80;;;;;;6214419;23;20415;-79
2021/01/18 02:36:29;;;;;;;5.20;4.10;;;6.70;72.90;;;;;;6245702;23;20749;-79
2021/01/18 02:39:05;;;;;;;2.50;2.30;;;6.70;72.90;;;;;;6246257;23;20416;-79
2021/01/18 02:41:39;;;;;;;3.33;3.03;;;6.70;72.60;;;;;;6245841;23;20415;-80
2021/01/18 02:44:07;;;;;;;3.13;2.80;;;6.70;72.50;;;;;;6244652;23;20412;-79
2021/01/18 02:46:37;;;;;;;3.00;2.70;;;6.60;72.50;;;;;;6246327;23;20427;-79
2021/01/18 02:49:06;;;;;;;3.17;2.67;;;6.70;72.50;;;;;;6245592;23;20961;-79
2021/01/18 02:51:36;;;;;;;4.67;3.00;;;6.70;72.40;;;;;;6246062;23;20485;-79
2021/01/18 02:54:06;;;;;;;3.93;3.63;;;6.70;72.40;;;;;;6245818;23;20404;-78
2021/01/18 02:56:34;;;;;;;4.03;3.67;;;6.70;72.90;;;;;;6245907;23;20415;-78
2021/01/18 02:59:06;;;;;;;2.87;2.67;;;6.70;72.30;;;;;;6246090;23;20416;-77
2021/01/18 03:02:11;;;;;;;4.70;4.03;;;6.70;72.20;;;;;;6246044;23;20420;-79
2021/01/18 03:05:18;;;;;;;4.43;4.00;;;6.80;72.30;;;;;;6146203;23;20431;-79
2021/01/18 03:07:53;;;;;;;5.17;4.70;;;6.70;72.10;;;;;;6102100;23;20815;-78
2021/01/18 03:10:29;;;;;;;5.07;4.10;;;6.70;72.20;;;;;;6151313;23;20947;-80
2021/01/18 03:13:02;;;;;;;5.33;3.97;;;6.70;72.10;;;;;;6204731;23;20415;-77
2021/01/18 03:15:41;;;;;;;5.30;4.80;;;6.70;72.00;;;;;;6245445;23;20426;-79
2021/01/18 03:18:10;;;;;;;4.70;4.30;;;6.60;72.00;;;;;;6245235;23;20415;-80
2021/01/18 03:20:38;;;;;;;6.57;5.73;;;6.60;72.00;;;;;;6245204;23;20416;-78
2021/01/18 03:23:11;;;;;;;5.97;5.37;;;6.60;72.00;;;;;;6245030;23;20956;-78
2021/01/18 03:25:56;;;;;;;6.60;4.80;;;6.70;72.00;;;;;;6246057;23;20409;-79
2021/01/18 03:28:27;;;;;;;4.97;4.50;;;6.70;72.10;;;;;;6245275;23;20449;-79
2021/01/18 03:30:54;;;;;;;4.97;4.50;;;6.70;72.00;;;;;;6245789;23;20426;-79
2021/01/18 03:33:24;;;;;;;5.60;5.10;;;6.70;72.20;;;;;;6245506;23;20435;-79
2021/01/18 03:35:51;;;;;;;5.03;4.43;;;6.70;72.00;;;;;;6245887;23;20786;-78
2021/01/18 03:38:18;;;;;;;7.60;5.17;;;6.70;71.30;;;;;;6243567;23;20935;-79
2021/01/18 03:40:48;;;;;;;6.20;4.30;;;6.60;71.40;;;;;;6245464;23;20993;-79
2021/01/18 03:43:14;;;;;;;4.87;4.37;;;6.60;71.60;;;;;;6245472;23;20448;-78
2021/01/18 03:45:43;;;;;;;7.80;4.47;;;6.50;71.80;;;;;;6245314;23;20439;-78
2021/01/18 03:48:11;;;;;;;6.20;5.50;;;6.50;72.10;;;;;;6245044;23;20436;-78
2021/01/18 03:50:39;;;;;;;5.70;4.30;;;6.50;72.10;;;;;;6245157;23;20408;-78
2021/01/18 03:53:06;;;;;;;8.27;5.20;;;6.50;72.20;;;;;;6244863;23;20923;-78
2021/01/18 03:55:34;;;;;;;5.60;5.10;;;6.50;72.50;;;;;;6245371;23;20416;-77
2021/01/18 03:58:00;;;;;;;5.77;5.20;;;6.50;72.40;;;;;;6245355;23;20420;-78
2021/01/18 04:00:30;;;;;;;7.23;5.40;;;6.60;72.30;;;;;;6245594;23;20426;-77
2021/01/18 04:02:57;;;;;;;5.47;4.73;;;6.60;72.10;;;;;;6245799;23;20455;-77
2021/01/18 04:05:25;;;;;;;7.33;5.30;;;6.50;72.00;;;;;;6243472;23;20418;-77
2021/01/18 04:07:52;;;;;;;6.40;5.80;;;6.50;72.20;;;;;;6245588;23;20405;-77
2021/01/18 04:10:20;;;;;;;6.33;5.23;;;6.50;72.70;;;;;;6245168;23;20416;-77
2021/01/18 04:12:49;;;;;;;10.30;5.30;;;6.50;72.90;;;;;;6245468;23;20410;-78
2021/01/18 04:15:18;;;;;;;8.60;5.90;;;6.50;72.80;;;;;;6245305;23;20421;-78
2021/01/18 04:17:47;;;;;;;6.77;5.57;;;6.50;72.80;;;;;;6245306;23;20415;-78
2021/01/18 04:20:15;;;;;;;5.70;5.20;;;6.50;72.80;;;;;;6245315;23;20405;-77
2021/01/18 04:22:46;;;;;;;5.93;5.13;;;6.50;72.70;;;;;;6245114;23;20449;-77
2021/01/18 04:25:14;;;;;;;6.77;5.93;;;6.50;72.50;;;;;;6244872;23;20454;-78
2021/01/18 04:27:46;;;;;;;5.83;5.33;;;6.50;72.50;;;;;;6245310;23;20902;-78
2021/01/18 04:30:15;;;;;;;7.23;5.00;;;6.50;72.50;;;;;;6243681;23;20438;-78
2021/01/18 04:32:42;;;;;;;8.73;6.00;;;6.50;72.50;;;;;;6245340;23;20409;-78
2021/01/18 04:35:10;;;;;;;7.20;5.83;;;6.50;72.60;;;;;;6245274;23;20425;-78
2021/01/18 04:37:36;;;;;;;5.23;4.70;;;6.40;72.30;;;;;;6245113;23;20422;-79
2021/01/18 04:40:05;;;;;;;6.97;5.90;;;6.40;72.50;;;;;;6245587;23;20408;-78
2021/01/18 04:42:32;;;;;;;7.60;5.40;;;6.50;72.60;;;;;;6245140;23;20443;-76
2021/01/18 04:45:00;;;;;;;8.00;4.90;;;6.40;72.20;;;;;;6244424;23;20409;-78
2021/01/18 04:47:28;;;;;;;5.53;5.03;;;6.40;72.10;;;;;;6244899;23;20437;-79
2021/01/18 04:49:56;;;;;;;5.57;5.00;;;6.30;72.20;;;;;;6244764;23;21273;-82
2021/01/18 04:52:37;;;;;;;6.40;5.17;;;6.40;72.50;;;;;;6244619;23;20439;-81
2021/01/18 04:55:10;;;;;;;6.50;5.30;;;6.40;72.50;;;;;;6245137;23;20465;-81
2021/01/18 04:57:43;;;;;;;7.10;5.93;;;6.30;72.30;;;;;;6242729;23;20468;-82
2021/01/18 05:00:13;;;;;;;6.33;5.50;;;6.30;72.10;;;;;;6245243;23;20910;-80
2021/01/18 05:02:47;;;;;;;8.67;5.57;;;6.30;72.00;;;;;;6245032;23;20455;-80
2021/01/18 05:05:23;;;;;;;7.77;5.50;;;6.30;72.00;;;;;;6246735;23;20730;-80
2021/01/18 05:08:07;;;;;;;10.33;6.33;;;6.20;72.00;;;;;;6247135;23;20422;-80
2021/01/18 05:10:33;;;;;;;7.80;4.77;;;6.20;72.00;;;;;;6247271;23;20407;-81
2021/01/18 05:13:03;;;;;;;5.10;4.60;;;6.10;71.90;;;;;;6247530;23;20426;-81
2021/01/18 05:15:30;;;;;;;10.07;5.30;;;6.10;72.00;;;;;;6246344;23;20422;-80
2021/01/18 05:18:00;;;;;;;6.57;5.60;;;6.10;71.80;;;;;;6247202;23;20905;-77
2021/01/18 05:20:27;;;;;;;8.80;5.70;;;6.00;71.70;;;;;;6246582;23;20402;-83
2021/01/18 05:22:55;;;;;;;9.73;6.07;;;6.00;72.00;;;;;;6244125;23;20448;-81
2021/01/18 05:25:22;;;;;;;5.73;5.07;;;6.00;71.90;;;;;;6247230;23;20447;-81
2021/01/18 05:28:05;;;;;;;9.40;5.83;;;6.00;71.80;;;;;;6247255;23;20419;-81
2021/01/18 05:30:34;;;;;;;9.40;6.67;;;6.00;71.90;;;;;;6246751;23;20407;-81
2021/01/18 05:33:04;;;;;;;7.20;5.80;;;6.00;71.90;;;;;;6246732;23;20469;-79
2021/01/18 05:35:31;;;;;;;6.40;5.80;;;6.00;71.80;;;;;;6246033;23;20426;-79
2021/01/18 05:38:05;;;;;;;6.17;5.37;;;6.00;71.90;;;;;;6246630;23;20410;-79
2021/01/18 05:40:35;;;;;;;6.13;5.57;;;6.00;71.90;;;;;;6246681;23;20398;-78
2021/01/18 05:43:02;;;;;;;5.37;4.77;;;6.00;71.80;;;;;;6247181;23;20452;-81
2021/01/18 05:45:31;;;;;;;6.00;4.93;;;6.00;71.90;;;;;;6246027;23;20422;-78
2021/01/18 05:47:59;;;;;;;5.00;4.53;;;6.00;71.50;;;;;;6246057;23;20446;-82
2021/01/18 05:50:28;;;;;;;9.40;5.70;;;6.00;71.30;;;;;;6244118;23;20429;-83
2021/01/18 05:52:55;;;;;;;6.57;5.27;;;6.00;71.60;;;;;;6246439;23;20445;-79
2021/01/18 05:55:25;;;;;;;6.63;5.23;;;6.00;71.80;;;;;;6246894;23;20539;-79
2021/01/18 05:57:54;;;;;;;6.50;5.43;;;6.10;71.70;;;;;;6246496;23;20449;-81
2021/01/18 06:00:32;;;;;;;5.90;5.23;;;6.00;71.20;;;;;;6245960;23;20423;-79
2021/01/18 06:03:00;;;;;;;8.47;5.07;;;6.00;71.20;;;;;;6246078;23;20500;-82
2021/01/18 06:05:52;;;;;;;7.40;5.40;;;6.00;71.30;;;;;;6245911;23;20407;-85
2021/01/18 06:08:27;;;;;;;9.70;7.40;;;6.00;71.40;;;;;;6245072;23;21031;-86
2021/01/18 06:10:56;;;;;;;6.77;5.50;;;5.90;71.40;;;;;;6245946;23;20398;-83
2021/01/18 06:20:07;;;;;;;5.27;4.77;;;6.00;71.40;;;;;;6246919;23;20371;-79
2021/01/18 06:22:51;;;;;;;;;;;;;;;;;;;;;
2021/01/18 06:25:43;;;;;;;6.97;6.27;;;6.10;71.60;;;;;;6245257;23;20408;-83
2021/01/18 06:31:46;;;;;;;14.77;7.53;;;6.20;71.10;;;;;;6235022;23;20403;-78
2021/01/18 06:34:27;;;;;;;9.03;7.47;;;6.10;71.00;;;;;;6245431;23;20423;-79
2021/01/18 06:36:55;;;;;;;8.33;7.47;;;6.10;71.10;;;;;;6244304;23;20431;-78
2021/01/18 06:39:25;;;;;;;8.10;5.90;;;6.10;71.40;;;;;;6241517;23;20432;-79
2021/01/18 06:41:57;;;;;;;6.13;5.50;;;6.10;71.30;;;;;;6245622;23;20419;-80
2021/01/18 06:45:08;;;;;;;6.40;5.80;;;6.10;71.30;;;;;;6243582;23;20443;-82
2021/01/18 06:58:23;;;;;;;9.47;7.83;;;6.10;71.50;;;;;;6234697;23;20483;-82
2021/01/18 07:00:59;;;;;;;14.40;8.30;;;6.20;71.70;;;;;;6221703;23;20728;-83
2021/01/18 07:03:55;;;;;;;9.13;7.00;;;6.20;71.50;;;;;;6245442;23;20492;-84
2021/01/18 07:06:31;;;;;;;10.40;6.50;;;6.20;71.70;;;;;;6231020;23;20897;-83
2021/01/18 07:08:59;;;;;;;10.13;5.60;;;6.20;71.60;;;;;;6244726;23;20469;-82
2021/01/18 07:11:28;;;;;;;6.10;5.10;;;6.20;71.10;;;;;;6242662;23;20718;-83
2021/01/18 07:13:57;;;;;;;6.53;4.70;;;6.10;70.60;;;;;;6244870;23;20454;-83
2021/01/18 07:16:25;;;;;;;16.47;6.40;;;6.10;71.00;;;;;;6244827;23;20425;-84
2021/01/18 07:19:03;;;;;;;7.33;6.37;;;6.10;71.00;;;;;;6244965;23;20396;-84
2021/01/18 07:21:32;;;;;;;5.60;4.90;;;6.10;71.00;;;;;;6244477;23;20446;-82
2021/01/18 07:24:00;;;;;;;6.47;5.77;;;6.10;70.90;;;;;;6243916;23;20498;-83
2021/01/18 07:26:56;;;;;;;8.30;5.77;;;6.20;71.00;;;;;;6240894;23;20419;-83
2021/01/18 07:30:19;;;;;;;9.80;6.00;;;6.30;71.00;;;;;;6244443;23;20930;-86
2021/01/18 07:33:10;;;;;;;7.87;5.43;;;6.30;70.80;;;;;;6244084;23;20423;-87
2021/01/18 07:35:38;;;;;;;7.30;5.17;;;6.30;70.30;;;;;;6242331;23;20408;-84
2021/01/18 07:42:29;;;;;;;12.60;5.77;;;6.30;70.00;;;;;;6231012;23;20901;-88
2021/01/18 07:49:25;;;;;;;7.70;4.83;;;6.40;69.80;;;;;;6234545;22;20432;-88
2021/01/18 07:52:57;;;;;;;6.23;4.23;;;6.50;69.50;;;;;;6242889;23;20764;-83
2021/01/18 07:55:24;;;;;;;4.53;4.03;;;6.50;69.70;;;;;;6244038;22;20410;-83
2021/01/18 07:58:21;;;;;;;7.70;4.43;;;6.60;69.30;;;;;;6244209;22;20446;-86
2021/01/18 08:00:51;;;;;;;8.00;5.10;;;6.60;69.10;;;;;;6244455;22;20909;-82
2021/01/18 08:03:28;;;;;;;4.70;3.93;;;6.60;69.20;;;;;;6244224;22;20448;-81
2021/01/18 08:06:20;;;;;;;5.33;4.93;;;6.60;69.10;;;;;;6241864;22;20427;-82
2021/01/18 08:09:23;;;;;;;6.07;4.17;;;6.70;69.10;;;;;;6244117;22;20503;-87
2021/01/18 08:11:50;;;;;;;5.40;4.37;;;6.80;68.90;;;;;;6244392;22;20921;-84
2021/01/18 08:14:23;;;;;;;5.07;4.30;;;6.80;68.70;;;;;;6244249;22;20894;-84
2021/01/18 08:17:34;;;;;;;6.07;4.60;;;6.80;68.40;;;;;;6243225;22;20427;-86
2021/01/18 08:20:24;;;;;;;6.40;4.40;;;6.80;68.30;;;;;;6244762;22;20463;-86
2021/01/18 08:22:50;;;;;;;7.20;4.80;;;6.80;68.30;;;;;;6244708;23;20759;-81
2021/01/18 08:25:30;;;;;;;3.47;3.17;;;6.90;68.30;;;;;;6244130;22;20418;-82
2021/01/18 08:27:59;;;;;;;4.50;4.13;;;6.90;68.10;;;;;;6244121;22;20940;-85
2021/01/18 08:30:56;;;;;;;4.77;4.27;;;6.90;68.30;;;;;;6244526;22;20783;-84
2021/01/18 08:33:30;;;;;;;8.00;4.50;;;7.00;68.50;;;;;;6242428;22;20461;-85
2021/01/18 08:38:43;;;;;;;5.60;5.07;;;7.00;68.30;;;;;;6234424;22;20420;-82
2021/01/18 08:41:12;;;;;;;9.90;5.03;;;7.00;68.20;;;;;;6245993;22;20421;-83
2021/01/18 08:43:50;;;;;;;5.87;4.70;;;7.10;68.20;;;;;;6246786;22;20460;-82
2021/01/18 08:46:35;;;;;;;9.27;4.50;;;7.10;68.30;;;;;;6246564;22;20414;-84
2021/01/18 08:52:15;;;;;;;4.23;3.27;;;7.20;67.60;;;;;;6220813;22;20427;-84
2021/01/18 08:57:39;;;;;;;6.47;3.70;;;7.20;67.80;;;;;;6244556;22;20404;-85
2021/01/18 09:07:22;;;;;;;4.33;3.17;;;7.40;67.50;;;;;;6209041;23;20408;-87
2021/01/18 09:16:44;;;;;;;19.30;5.47;;;7.50;67.00;;;;;;6213420;23;20378;-86
2021/01/18 09:19:16;;;;;;;11.50;4.20;;;7.40;67.10;;;;;;6212931;23;20414;-87
2021/01/18 09:31:38;;;;;;;5.97;4.10;;;7.50;66.60;;;;;;6189824;23;20421;-83
2021/01/18 09:43:35;;;;;;;20.77;4.00;;;7.70;67.20;;;;;;6034908;23;20462;-83
2021/01/18 09:46:02;;;;;;;5.90;4.30;;;7.70;66.60;;;;;;6132368;23;21019;-83
2021/01/18 09:52:19;;;;;;;7.40;4.47;;;7.80;65.60;;;;;;6219288;23;20452;-86
2021/01/18 09:54:54;;;;;;;14.67;5.90;;;7.70;65.40;;;;;;6165884;23;20495;-84
2021/01/18 10:07:31;;;;;;;11.00;4.60;;;7.50;66.00;;;;;;6034617;23;20854;-85
2021/01/18 10:10:16;;;;;;;7.60;3.40;;;7.50;66.60;;;;;;6036090;23;20404;-85
2021/01/18 10:13:30;;;;;;;7.10;4.40;;;7.40;66.50;;;;;;6064523;23;20454;-86
2021/01/18 10:16:07;;;;;;;7.37;4.17;;;7.50;66.60;;;;;;6115961;23;20500;-84
2021/01/18 10:18:37;;;;;;;11.57;4.50;;;7.60;66.90;;;;;;6121975;23;20495;-85
2021/01/18 10:21:10;;;;;;;22.63;5.70;;;7.70;66.80;;;;;;6131307;23;20431;-83
2021/01/18 10:27:04;;;;;;;5.50;4.60;;;8.00;66.60;;;;;;6048985;23;20824;-82
2021/01/18 10:29:34;;;;;;;3.60;3.30;;;8.00;65.70;;;;;;6152524;23;20446;-83
2021/01/18 10:32:01;;;;;;;6.63;4.03;;;8.00;65.50;;;;;;6172623;22;20405;-82
2021/01/18 12:30:38;;;;;;;5.73;3.57;;;9.10;61.10;;;;;;6241928;22;20780;-80
2021/01/18 13:28:00;;;;;;;6.80;2.73;;;8.70;61.80;;;;;;6156776;23;20494;-83
2021/01/18 13:34:36;;;;;;;5.53;3.10;;;8.60;62.10;;;;;;6187621;23;20436;-84
2021/01/18 13:37:30;;;;;;;3.80;2.23;;;8.70;62.10;;;;;;6217998;22;20416;-84
2021/01/18 13:44:23;;;;;;;2.70;2.40;;;8.60;62.50;;;;;;5982355;24;20447;-86
2021/01/18 13:47:39;;;;;;;5.80;2.63;;;8.60;62.50;;;;;;6045098;23;20938;-82
2021/01/18 13:57:14;;;;;;;5.10;2.90;;;8.50;62.40;;;;;;6000661;23;20415;-86
2021/01/18 14:00:00;;;;;;;3.90;2.77;;;8.50;62.20;;;;;;6151481;23;20398;-84
2021/01/18 14:19:50;;;;;;;7.50;3.23;;;8.30;63.60;;;;;;5858060;24;20468;-84
2021/01/18 14:22:22;;;;;;;3.70;3.00;;;8.40;62.70;;;;;;5916336;23;20426;-84
2021/01/18 14:31:47;;;;;;;6.57;3.00;;;8.70;62.10;;;;;;6060041;23;20207;-87
2021/01/18 14:34:13;;;;;;;5.40;2.50;;;8.50;62.50;;;;;;6237340;23;20453;-81
2021/01/18 14:36:41;;;;;;;4.33;2.60;;;8.50;61.40;;;;;;6266790;22;20432;-80
2021/01/18 14:39:09;;;;;;;4.93;2.77;;;8.50;61.60;;;;;;6271925;22;20412;-84
2021/01/18 14:41:37;;;;;;;4.50;2.70;;;8.50;61.90;;;;;;6273376;22;20423;-82
2021/01/18 14:44:05;;;;;;;8.47;3.53;;;8.50;61.80;;;;;;6271459;22;20801;-82
2021/01/18 14:46:55;;;;;;;5.43;3.40;;;8.50;62.00;;;;;;6272618;22;20415;-83
2021/01/18 14:53:04;;;;;;;2.63;2.43;;;8.50;62.00;;;;;;6109017;23;20459;-80
2021/01/18 14:55:31;;;;;;;3.60;3.30;;;8.30;61.10;;;;;;6164129;22;20413;-79
2021/01/18 14:57:59;;;;;;;2.43;2.23;;;8.20;61.20;;;;;;6275754;22;20695;-81
2021/01/18 15:00:26;;;;;;;5.80;2.90;;;8.20;61.50;;;;;;6272261;22;20429;-79
2021/01/18 15:02:55;;;;;;;5.90;3.70;;;8.10;61.50;;;;;;6275044;22;20483;-81
2021/01/18 15:05:22;;;;;;;3.03;2.80;;;8.00;61.70;;;;;;6274423;22;20977;-80
2021/01/18 15:07:48;;;;;;;7.60;3.10;;;8.00;61.90;;;;;;6275143;22;20434;-81
2021/01/18 15:10:16;;;;;;;6.17;3.10;;;8.00;62.30;;;;;;6276157;22;20424;-81
2021/01/18 15:12:51;;;;;;;4.40;3.30;;;8.00;62.30;;;;;;6276467;22;20404;-82
2021/01/18 15:15:21;;;;;;;3.67;2.40;;;8.00;62.40;;;;;;6274071;22;20417;-81
2021/01/18 15:17:47;;;;;;;2.57;2.07;;;8.00;61.90;;;;;;6276065;22;20411;-81
2021/01/18 15:20:14;;;;;;;2.60;2.40;;;8.00;61.90;;;;;;6273995;22;20402;-80
2021/01/18 15:22:41;;;;;;;2.47;2.10;;;8.00;61.70;;;;;;6275595;22;20470;-80
2021/01/18 15:25:09;;;;;;;1.97;1.80;;;7.90;61.60;;;;;;6275785;22;20485;-82
2021/01/18 15:27:39;;;;;;;6.23;2.50;;;7.80;61.60;;;;;;6275849;22;20424;-81
2021/01/18 15:30:12;;;;;;;3.43;2.60;;;7.80;61.80;;;;;;6274620;22;20525;-79
2021/01/18 15:32:39;;;;;;;3.10;2.37;;;7.70;61.80;;;;;;6283221;22;20424;-80
2021/01/18 15:35:08;;;;;;;3.93;3.00;;;7.70;62.10;;;;;;6304597;22;20417;-81
2021/01/18 15:37:37;;;;;;;3.77;3.33;;;7.70;62.10;;;;;;6305094;22;20449;-80
2021/01/18 15:42:52;;;;;;;4.80;2.67;;;7.70;62.10;;;;;;6302587;22;20447;-80
2021/01/18 15:45:24;;;;;;;2.73;2.50;;;7.70;62.40;;;;;;6306635;22;20427;-81
2021/01/18 15:47:52;;;;;;;3.83;2.53;;;7.60;62.20;;;;;;6300641;22;20409;-81
2021/01/18 15:50:27;;;;;;;3.70;2.20;;;7.60;62.00;;;;;;6304058;22;20415;-83
2021/01/18 15:52:54;;;;;;;2.93;2.37;;;7.70;62.40;;;;;;6272911;22;20438;-82
2021/01/18 15:55:23;;;;;;;3.87;2.80;;;7.70;62.20;;;;;;6272080;22;20412;-81
2021/01/18 15:57:50;;;;;;;2.90;2.60;;;7.70;62.10;;;;;;6272786;22;20408;-80
2021/01/18 16:00:21;;;;;;;5.00;2.40;;;7.60;62.10;;;;;;6272743;22;20412;-80
2021/01/18 16:02:48;;;;;;;2.30;2.10;;;7.60;62.20;;;;;;6272112;22;20417;-79
2021/01/18 16:05:16;;;;;;;2.80;2.50;;;7.50;61.80;;;;;;6272080;22;20421;-80
2021/01/18 16:08:06;;;;;;;2.60;2.40;;;7.40;61.70;;;;;;6271272;22;20422;-80
2021/01/18 16:10:44;;;;;;;4.43;2.87;;;7.40;62.30;;;;;;6273565;22;20408;-81
2021/01/18 16:13:35;;;;;;;2.77;2.37;;;7.50;62.70;;;;;;6274242;22;20405;-80
2021/01/18 16:16:04;;;;;;;5.40;2.87;;;7.40;62.20;;;;;;6271281;22;20421;-80
2021/01/18 16:18:31;;;;;;;2.67;2.43;;;7.50;62.10;;;;;;6271788;22;20410;-80
2021/01/18 16:20:58;;;;;;;5.60;3.53;;;7.40;62.30;;;;;;6272055;22;20404;-80
2021/01/18 16:23:24;;;;;;;3.83;3.00;;;7.40;62.40;;;;;;6269649;22;20456;-78
2021/01/18 16:25:51;;;;;;;3.20;2.83;;;7.50;62.50;;;;;;6275788;22;20413;-79
2021/01/18 16:28:19;;;;;;;3.50;2.77;;;7.50;62.50;;;;;;6271649;22;20474;-81
2021/01/18 16:30:50;;;;;;;6.20;3.77;;;7.50;62.50;;;;;;6271573;22;20436;-81
2021/01/18 16:33:18;;;;;;;4.47;2.80;;;7.50;62.50;;;;;;6271388;22;20430;-79
2021/01/18 16:35:48;;;;;;;6.93;3.77;;;7.50;62.30;;;;;;6272896;22;20423;-81
2021/01/18 16:38:16;;;;;;;3.60;3.30;;;7.50;62.50;;;;;;6271768;22;20946;-83
2021/01/18 16:40:43;;;;;;;6.00;4.20;;;7.60;62.60;;;;;;6271558;22;20401;-80
2021/01/18 16:43:18;;;;;;;3.03;2.70;;;7.60;61.90;;;;;;6270023;22;20436;-80
2021/01/18 16:45:48;;;;;;;3.00;2.80;;;7.60;62.00;;;;;;6271233;22;20418;-80
2021/01/18 16:48:18;;;;;;;3.70;3.40;;;7.50;61.70;;;;;;6272113;22;20768;-80
2021/01/18 16:50:44;;;;;;;4.30;3.20;;;7.50;61.80;;;;;;6270865;22;20807;-79
2021/01/18 16:53:11;;;;;;;5.60;4.20;;;7.50;61.80;;;;;;6271386;22;20440;-80
2021/01/18 16:55:37;;;;;;;3.60;3.20;;;7.50;61.50;;;;;;6271461;22;20956;-80
2021/01/18 16:58:04;;;;;;;3.60;3.30;;;7.40;61.10;;;;;;6271396;22;20410;-80
2021/01/18 17:00:32;;;;;;;4.67;3.33;;;7.40;61.10;;;;;;6273301;22;20456;-80
2021/01/18 17:03:13;;;;;;;5.53;3.27;;;7.40;61.10;;;;;;6273852;22;20481;-79
2021/01/18 17:05:39;;;;;;;4.60;4.20;;;7.40;60.70;;;;;;6273359;22;20406;-79
2021/01/18 17:08:06;;;;;;;3.90;3.60;;;7.30;60.90;;;;;;6274917;22;20397;-79
2021/01/18 17:10:33;;;;;;;4.47;2.93;;;7.30;61.10;;;;;;6272078;22;20467;-79
2021/01/18 17:12:59;;;;;;;3.67;3.00;;;7.30;61.00;;;;;;6273361;22;20417;-80
2021/01/18 17:15:26;;;;;;;4.37;3.30;;;7.30;61.20;;;;;;6274015;22;20414;-77
2021/01/18 17:17:52;;;;;;;3.60;3.30;;;7.30;61.00;;;;;;6273481;22;20819;-78
2021/01/18 17:20:23;;;;;;;2.73;2.47;;;7.30;60.90;;;;;;6274323;22;20972;-79
2021/01/18 17:22:50;;;;;;;3.20;2.90;;;7.40;61.20;;;;;;6273937;22;20470;-79
2021/01/18 17:25:16;;;;;;;3.43;3.13;;;7.30;61.00;;;;;;6273601;22;20549;-80
2021/01/18 17:27:43;;;;;;;6.23;3.30;;;7.40;61.20;;;;;;6274503;22;20433;-79
2021/01/18 17:30:17;;;;;;;4.40;3.93;;;7.30;60.90;;;;;;6274069;22;20414;-79
2021/01/18 17:32:45;;;;;;;5.30;3.50;;;7.40;61.00;;;;;;6273279;22;20446;-78
2021/01/18 17:35:13;;;;;;;4.10;3.40;;;7.40;60.70;;;;;;6271145;22;20925;-79
2021/01/18 17:37:42;;;;;;;3.93;3.60;;;7.40;60.40;;;;;;6273609;22;20775;-79
2021/01/18 17:40:10;;;;;;;3.97;3.60;;;7.30;60.50;;;;;;6273254;22;20430;-79
2021/01/18 17:42:37;;;;;;;3.53;3.23;;;7.30;60.70;;;;;;6273545;22;20796;-79
2021/01/18 17:45:05;;;;;;;4.17;3.77;;;7.30;60.70;;;;;;6273226;22;20452;-79
2021/01/18 17:47:31;;;;;;;3.83;3.47;;;7.40;60.80;;;;;;6273277;22;20410;-79
2021/01/18 17:49:58;;;;;;;4.83;3.77;;;7.40;60.70;;;;;;6273490;22;20417;-79
2021/01/18 17:52:25;;;;;;;5.53;4.17;;;7.40;60.70;;;;;;6272950;22;20420;-80
2021/01/18 17:54:53;;;;;;;4.60;3.50;;;7.30;60.60;;;;;;6274905;22;20409;-80
2021/01/18 17:57:19;;;;;;;4.87;3.73;;;7.40;60.60;;;;;;6277691;22;20403;-79
2021/01/18 17:59:53;;;;;;;4.00;3.60;;;7.30;60.60;;;;;;6277185;22;20416;-79
2021/01/18 18:02:25;;;;;;;3.60;3.30;;;7.30;60.80;;;;;;6275167;22;20410;-79
2021/01/18 18:04:51;;;;;;;5.87;4.17;;;7.40;61.20;;;;;;6274452;22;20449;-80
2021/01/18 18:07:21;;;;;;;7.73;3.77;;;7.40;61.10;;;;;;6272671;22;20421;-80
2021/01/18 18:09:51;;;;;;;5.90;3.80;;;7.40;61.10;;;;;;6272958;22;20915;-80
2021/01/18 18:12:20;;;;;;;9.20;4.47;;;7.40;61.20;;;;;;6272192;22;20408;-79
2021/01/18 18:14:47;;;;;;;4.80;3.87;;;7.40;60.70;;;;;;6274885;22;20406;-80
2021/01/18 18:17:17;;;;;;;5.40;4.33;;;7.30;60.70;;;;;;6276564;22;20408;-80
2021/01/18 18:19:48;;;;;;;5.93;4.00;;;7.30;61.30;;;;;;6276689;22;20414;-79
2021/01/18 18:22:15;;;;;;;4.30;3.83;;;7.30;61.30;;;;;;6276110;22;20453;-79
2021/01/18 18:24:42;;;;;;;5.63;3.90;;;7.30;61.30;;;;;;6277032;22;20455;-78
2021/01/18 18:27:08;;;;;;;6.47;3.67;;;7.30;61.10;;;;;;6275891;22;20422;-78
2021/01/18 18:29:36;;;;;;;6.63;4.70;;;7.30;60.90;;;;;;6274492;22;20420;-80